createdAt,value
2017-12-05T00:01:43.871Z,3.83
2017-12-05T00:04:11.453Z,2.87
2017-12-05T00:06:39.076Z,3.07
2017-12-05T00:09:06.611Z,3.43
2017-12-05T00:11:34.169Z,2.47
2017-12-05T00:14:01.677Z,2.87
2017-12-05T00:16:29.191Z,2.87
2017-12-05T00:18:56.773Z,3.37
2017-12-05T00:21:24.333Z,3.87
2017-12-05T00:23:51.882Z,2.80
2017-12-05T00:26:19.451Z,3.10
2017-12-05T00:28:46.985Z,3.60
2017-12-05T00:31:14.511Z,2.77
2017-12-05T00:33:42.031Z,3.27
2017-12-05T00:36:09.542Z,2.87
2017-12-05T00:38:37.074Z,3.20
2017-12-05T00:41:04.711Z,2.90
2017-12-05T00:43:32.251Z,3.17
2017-12-05T00:45:59.767Z,3.07
2017-12-05T00:48:27.304Z,3.43
2017-12-05T00:50:54.932Z,2.87
2017-12-05T00:53:22.451Z,2.80
2017-12-05T00:55:49.964Z,3.43
2017-12-05T00:58:17.477Z,3.17
2017-12-05T01:00:44.988Z,3.53
2017-12-05T01:03:12.510Z,3.73
2017-12-05T01:05:40.106Z,2.50
2017-12-05T01:08:07.622Z,3.13
2017-12-05T01:10:35.148Z,3.70
2017-12-05T01:13:02.674Z,3.00
2017-12-05T01:15:30.218Z,3.47
2017-12-05T01:17:57.730Z,3.50
2017-12-05T01:20:25.250Z,3.57
2017-12-05T01:22:52.766Z,4.00
2017-12-05T01:25:20.291Z,3.90
2017-12-05T01:27:47.805Z,2.90
2017-12-05T01:30:15.385Z,4.17
2017-12-05T01:32:42.898Z,3.63
2017-12-05T01:35:10.450Z,4.10
2017-12-05T01:37:37.977Z,3.47
2017-12-05T01:40:05.494Z,3.50
2017-12-05T01:42:33.020Z,3.43
2017-12-05T01:45:00.549Z,3.83
2017-12-05T01:47:28.084Z,4.10
2017-12-05T01:49:55.603Z,3.60
2017-12-05T01:52:23.145Z,3.50
2017-12-05T01:54:50.667Z,4.30
2017-12-05T01:57:18.183Z,3.70
2017-12-05T01:59:45.814Z,4.20
2017-12-05T02:02:13.371Z,4.70
2017-12-05T02:04:40.890Z,4.47
2017-12-05T02:07:08.491Z,3.87
2017-12-05T02:09:36.019Z,4.10
2017-12-05T02:12:03.537Z,4.00
2017-12-05T02:14:31.054Z,4.53
2017-12-05T02:16:58.571Z,4.30
2017-12-05T02:19:26.185Z,4.67
2017-12-05T02:21:53.717Z,4.37
2017-12-05T02:24:21.300Z,5.10
2017-12-05T02:26:48.789Z,3.90
2017-12-05T02:29:16.323Z,4.57
2017-12-05T02:31:43.882Z,4.60
2017-12-05T02:34:11.406Z,4.10
2017-12-05T02:36:38.917Z,5.03
2017-12-05T02:39:06.460Z,3.80
2017-12-05T02:41:33.975Z,4.10
2017-12-05T02:44:01.581Z,3.97
2017-12-05T02:46:29.133Z,4.10
2017-12-05T02:48:56.693Z,3.67
2017-12-05T02:51:24.207Z,3.47
2017-12-05T02:53:51.709Z,3.80
2017-12-05T02:56:19.213Z,3.53
2017-12-05T02:58:46.732Z,3.63
2017-12-05T03:01:14.238Z,4.00
2017-12-05T03:03:41.752Z,3.60
2017-12-05T03:06:09.310Z,3.80
2017-12-05T03:08:36.831Z,4.00
2017-12-05T03:11:04.359Z,3.23
2017-12-05T03:13:31.878Z,3.27
2017-12-05T03:15:59.388Z,3.53
2017-12-05T03:18:26.893Z,3.07
2017-12-05T03:20:54.468Z,3.73
2017-12-05T03:23:22.016Z,3.40
2017-12-05T03:25:49.588Z,3.40
2017-12-05T03:28:17.096Z,3.07
2017-12-05T03:30:44.643Z,3.20
2017-12-05T03:33:12.159Z,3.57
2017-12-05T03:35:39.666Z,3.47
2017-12-05T03:38:07.181Z,4.00
2017-12-05T03:40:34.700Z,3.80
2017-12-05T03:43:02.217Z,3.50
2017-12-05T03:45:29.737Z,3.73
2017-12-05T03:47:57.322Z,3.70
2017-12-05T03:50:24.843Z,4.20
2017-12-05T03:52:52.383Z,4.07
2017-12-05T03:55:19.888Z,3.93
2017-12-05T03:57:47.398Z,3.90
2017-12-05T04:00:14.925Z,4.10
2017-12-05T04:02:42.470Z,3.60
2017-12-05T04:05:09.974Z,4.20
2017-12-05T04:07:37.495Z,4.37
2017-12-05T04:10:05.055Z,4.33
2017-12-05T04:12:32.562Z,4.00
2017-12-05T04:15:00.072Z,4.03
2017-12-05T04:17:27.588Z,4.40
2017-12-05T04:19:55.130Z,4.33
2017-12-05T04:22:22.639Z,4.30
2017-12-05T04:24:50.146Z,4.10
2017-12-05T04:27:17.812Z,4.70
2017-12-05T04:29:45.296Z,4.33
2017-12-05T04:32:12.801Z,4.77
2017-12-05T04:34:40.304Z,4.60
2017-12-05T04:37:07.812Z,4.33
2017-12-05T04:39:35.335Z,4.17
2017-12-05T04:42:02.925Z,4.13
2017-12-05T04:44:30.443Z,4.50
2017-12-05T04:46:57.969Z,4.70
2017-12-05T04:49:25.597Z,5.47
2017-12-05T04:51:53.111Z,5.40
2017-12-05T04:54:20.624Z,5.20
2017-12-05T04:56:48.170Z,5.73
2017-12-05T04:59:15.738Z,6.80
2017-12-05T05:01:43.261Z,6.40
2017-12-05T05:04:10.872Z,6.87
2017-12-05T05:06:38.388Z,6.40
2017-12-05T05:09:05.899Z,7.33
2017-12-05T05:11:33.424Z,6.83
2017-12-05T05:14:00.956Z,7.03
2017-12-05T05:16:28.479Z,7.70
2017-12-05T05:18:55.995Z,7.37
2017-12-05T05:21:23.503Z,7.00
2017-12-05T05:23:51.031Z,7.83
2017-12-05T05:26:18.562Z,8.10
2017-12-05T05:28:46.088Z,8.30
2017-12-05T05:31:13.606Z,7.60
2017-12-05T05:33:41.151Z,7.43
2017-12-05T05:36:08.721Z,6.80
2017-12-05T05:38:36.251Z,7.40
2017-12-05T05:41:03.772Z,6.80
2017-12-05T05:43:31.281Z,6.93
2017-12-05T05:45:58.797Z,7.77
2017-12-05T05:48:26.334Z,6.73
2017-12-05T05:50:53.845Z,7.37
2017-12-05T05:53:21.358Z,6.10
2017-12-05T05:55:48.882Z,6.47
2017-12-05T05:58:16.454Z,5.90
2017-12-05T06:00:44.017Z,6.33
2017-12-05T06:03:11.549Z,6.17
2017-12-05T06:05:39.051Z,6.03
2017-12-05T06:08:06.570Z,6.20
2017-12-05T06:10:34.089Z,5.23
2017-12-05T06:13:01.609Z,5.40
2017-12-05T06:15:29.145Z,5.27
2017-12-05T06:17:56.674Z,5.60
2017-12-05T06:20:24.200Z,5.10
2017-12-05T06:22:51.753Z,5.43
2017-12-05T06:25:19.314Z,5.20
2017-12-05T06:27:46.838Z,5.67
2017-12-05T06:30:14.354Z,5.37
2017-12-05T06:32:41.870Z,5.53
2017-12-05T06:35:09.393Z,5.70
2017-12-05T06:37:36.988Z,5.30
2017-12-05T06:40:04.583Z,6.03
2017-12-05T06:42:32.093Z,5.83
2017-12-05T06:44:59.608Z,5.53
2017-12-05T06:47:27.111Z,5.30
2017-12-05T06:49:54.631Z,5.23
2017-12-05T06:52:22.130Z,5.10
2017-12-05T06:54:49.645Z,5.00
2017-12-05T06:57:17.185Z,4.23
2017-12-05T06:59:44.751Z,4.53
2017-12-05T07:02:12.300Z,4.30
2017-12-05T07:04:39.875Z,4.13
2017-12-05T07:07:07.380Z,4.13
2017-12-05T07:09:34.896Z,4.40
2017-12-05T07:12:02.448Z,3.87
2017-12-05T07:14:30.014Z,3.97
2017-12-05T07:16:57.563Z,4.27
2017-12-05T07:19:25.113Z,4.10
2017-12-05T07:21:52.689Z,3.37
2017-12-05T07:24:20.195Z,3.57
2017-12-05T07:26:47.706Z,3.47
2017-12-05T07:29:15.222Z,6.30
2017-12-05T07:31:42.753Z,3.77
2017-12-05T07:34:10.359Z,4.60
2017-12-05T07:36:37.878Z,3.40
2017-12-05T07:39:05.392Z,3.40
2017-12-05T07:41:32.914Z,3.83
2017-12-05T07:44:00.429Z,3.00
2017-12-05T07:46:27.934Z,2.87
2017-12-05T07:48:55.439Z,3.33
2017-12-05T07:51:22.990Z,2.50
2017-12-05T07:53:50.521Z,3.00
2017-12-05T07:56:18.035Z,3.07
2017-12-05T07:58:45.564Z,4.40
2017-12-05T08:01:13.068Z,3.60
2017-12-05T08:03:40.751Z,3.43
2017-12-05T08:06:08.258Z,2.97
2017-12-05T08:08:35.769Z,3.00
2017-12-05T08:11:03.295Z,2.97
2017-12-05T08:13:30.805Z,2.77
2017-12-05T08:15:58.309Z,2.40
2017-12-05T08:18:25.814Z,2.67
2017-12-05T08:20:53.335Z,2.30
2017-12-05T08:23:20.859Z,2.60
2017-12-05T08:25:48.360Z,2.40
2017-12-05T08:28:15.881Z,2.83
2017-12-05T08:30:43.400Z,2.63
2017-12-05T08:33:10.910Z,2.87
2017-12-05T08:35:38.449Z,2.97
2017-12-05T08:38:05.956Z,2.73
2017-12-05T08:40:33.470Z,2.57
2017-12-05T08:43:00.985Z,2.30
2017-12-05T08:45:28.495Z,2.40
2017-12-05T08:47:55.996Z,2.10
2017-12-05T08:50:23.519Z,2.00
2017-12-05T08:52:51.028Z,2.00
2017-12-05T08:55:18.595Z,1.80
2017-12-05T08:57:46.206Z,1.80
2017-12-05T09:00:13.762Z,1.90
2017-12-05T09:02:41.291Z,1.97
2017-12-05T09:05:08.800Z,2.20
2017-12-05T09:07:36.308Z,2.10
2017-12-05T09:10:03.855Z,1.87
2017-12-05T09:12:31.375Z,1.77
2017-12-05T09:14:58.917Z,1.90
2017-12-05T09:17:26.429Z,1.90
2017-12-05T09:19:53.964Z,1.60
2017-12-05T09:22:21.515Z,2.00
2017-12-05T09:24:49.025Z,1.90
2017-12-05T09:27:16.865Z,1.67
2017-12-05T09:29:46.144Z,1.90
2017-12-05T09:32:15.612Z,1.70
2017-12-05T09:34:45.987Z,1.83
2017-12-05T09:37:15.745Z,1.90
2017-12-05T09:39:43.257Z,2.07
2017-12-05T09:42:10.785Z,2.70
2017-12-05T09:44:38.313Z,2.50
2017-12-05T09:47:05.903Z,2.43
2017-12-05T09:49:33.462Z,3.20
2017-12-05T09:52:00.975Z,2.70
2017-12-05T09:54:28.484Z,2.97
2017-12-05T09:56:56.782Z,3.77
2017-12-05T09:59:24.285Z,3.13
2017-12-05T10:01:51.815Z,4.17
2017-12-05T10:04:19.319Z,3.73
2017-12-05T10:06:46.825Z,4.43
2017-12-05T10:09:14.352Z,4.10
2017-12-05T10:11:41.878Z,4.40
2017-12-05T10:14:09.464Z,4.40
2017-12-05T10:16:36.974Z,4.30
2017-12-05T10:19:04.581Z,4.47
2017-12-05T10:21:32.137Z,4.20
2017-12-05T10:23:59.641Z,4.20
2017-12-05T10:26:27.158Z,4.53
2017-12-05T10:28:54.670Z,4.07
2017-12-05T10:31:22.325Z,4.67
2017-12-05T10:33:49.946Z,4.73
2017-12-05T10:36:17.454Z,4.70
2017-12-05T10:38:44.954Z,4.37
2017-12-05T10:41:12.453Z,4.20
2017-12-05T10:43:39.962Z,4.20
2017-12-05T10:46:07.472Z,4.33
2017-12-05T10:48:34.977Z,4.53
2017-12-05T10:51:02.485Z,4.23
2017-12-05T10:53:30.077Z,4.47
2017-12-05T10:55:57.594Z,4.00
2017-12-05T10:58:25.106Z,4.00
2017-12-05T11:00:52.624Z,4.17
2017-12-05T11:03:20.127Z,3.90
2017-12-05T11:05:47.641Z,4.37
2017-12-05T11:08:15.144Z,4.10
2017-12-05T11:10:42.668Z,4.80
2017-12-05T11:13:10.284Z,4.83
2017-12-05T11:15:37.840Z,4.40
2017-12-05T11:18:05.349Z,4.10
2017-12-05T11:20:32.861Z,4.13
2017-12-05T11:23:00.378Z,3.80
2017-12-05T11:25:27.921Z,4.30
2017-12-05T11:27:55.422Z,3.83
2017-12-05T11:30:22.930Z,3.50
2017-12-05T11:32:50.438Z,3.40
2017-12-05T11:35:17.955Z,3.50
2017-12-05T11:37:45.457Z,3.90
2017-12-05T11:40:12.971Z,3.50
2017-12-05T11:42:40.474Z,3.70
2017-12-05T11:45:07.986Z,3.33
2017-12-05T11:47:35.626Z,3.00
2017-12-05T11:50:03.174Z,3.50
2017-12-05T11:52:30.686Z,3.07
2017-12-05T11:54:58.206Z,3.07
2017-12-05T11:57:25.717Z,3.40
2017-12-05T11:59:53.784Z,3.03
2017-12-05T12:02:21.300Z,3.13
2017-12-05T12:04:48.804Z,3.23
2017-12-05T12:07:16.322Z,2.97
2017-12-05T12:09:43.866Z,3.30
2017-12-05T12:12:11.416Z,4.03
2017-12-05T12:14:38.926Z,3.67
2017-12-05T12:17:06.433Z,4.13
2017-12-05T12:19:33.958Z,4.10
2017-12-05T12:22:01.497Z,4.20
2017-12-05T12:24:29.110Z,4.50
2017-12-05T12:26:56.616Z,3.93
2017-12-05T12:29:24.171Z,4.03
2017-12-05T12:31:51.750Z,4.57
2017-12-05T12:34:19.298Z,4.43
2017-12-05T12:36:46.814Z,4.73
2017-12-05T12:39:14.323Z,4.60
2017-12-05T12:41:41.952Z,4.30
2017-12-05T12:44:09.461Z,4.10
2017-12-05T12:46:36.970Z,4.67
2017-12-05T12:49:04.539Z,4.67
2017-12-05T12:51:32.192Z,4.63
2017-12-05T12:53:59.766Z,4.80
2017-12-05T12:56:27.318Z,5.23
2017-12-05T12:58:54.962Z,5.37
2017-12-05T13:01:22.512Z,6.17
2017-12-05T13:03:50.023Z,6.50
2017-12-05T13:06:17.541Z,7.00
2017-12-05T13:08:45.058Z,7.03
2017-12-05T13:11:12.586Z,6.50
2017-12-05T13:13:40.091Z,6.13
2017-12-05T13:16:07.713Z,6.87
2017-12-05T13:18:35.227Z,6.60
2017-12-05T13:21:02.728Z,5.77
2017-12-05T13:23:30.239Z,6.43
2017-12-05T13:25:57.750Z,5.73
2017-12-05T13:28:25.292Z,6.90
2017-12-05T13:30:52.809Z,6.57
2017-12-05T13:33:20.834Z,7.03
2017-12-05T13:35:48.654Z,6.40
2017-12-05T13:38:17.197Z,7.13
2017-12-05T13:40:44.820Z,6.70
2017-12-05T13:43:13.443Z,6.33
2017-12-05T13:45:40.960Z,7.20
2017-12-05T13:48:08.546Z,7.57
2017-12-05T13:50:37.183Z,7.07
2017-12-05T13:53:05.955Z,7.30
2017-12-05T13:55:33.550Z,7.33
2017-12-05T13:58:13.423Z,8.13
2017-12-05T14:01:10.103Z,7.97
2017-12-05T14:03:38.501Z,7.80
2017-12-05T14:06:06.731Z,8.10
2017-12-05T14:08:34.245Z,7.87
2017-12-05T14:11:02.503Z,8.03
2017-12-05T14:13:32.233Z,7.77
2017-12-05T14:15:59.780Z,7.47
2017-12-05T14:18:27.319Z,8.40
2017-12-05T14:20:54.853Z,8.73
2017-12-05T14:23:22.388Z,8.10
2017-12-05T14:25:49.910Z,8.53
2017-12-05T14:28:17.450Z,8.70
2017-12-05T14:30:46.708Z,8.30
2017-12-05T14:33:14.224Z,9.07
2017-12-05T14:35:41.739Z,8.63
2017-12-05T14:38:09.345Z,9.53
2017-12-05T14:40:38.553Z,9.13
2017-12-05T14:43:06.095Z,9.37
2017-12-05T14:45:33.613Z,8.97
2017-12-05T14:48:03.024Z,9.27
2017-12-05T14:50:31.531Z,9.63
2017-12-05T14:53:01.946Z,9.70
2017-12-05T14:55:29.471Z,9.90
2017-12-05T14:57:56.992Z,11.00
2017-12-05T15:00:25.790Z,9.63
2017-12-05T15:02:54.281Z,10.20
2017-12-05T15:05:21.816Z,9.60
2017-12-05T15:07:49.352Z,9.87
2017-12-05T15:10:16.868Z,10.93
2017-12-05T15:12:45.394Z,10.17
2017-12-05T15:15:12.922Z,9.67
2017-12-05T15:17:40.441Z,9.63
2017-12-05T15:20:07.972Z,10.00
2017-12-05T15:22:35.489Z,10.07
2017-12-05T15:25:03.720Z,9.77
2017-12-05T15:27:31.240Z,10.73
2017-12-05T15:29:58.758Z,10.20
2017-12-05T15:32:26.303Z,10.03
2017-12-05T15:34:53.822Z,10.27
2017-12-05T15:37:21.356Z,9.90
2017-12-05T15:39:51.048Z,9.97
2017-12-05T15:42:18.574Z,9.80
2017-12-05T15:44:49.929Z,10.23
2017-12-05T15:47:17.514Z,9.80
2017-12-05T15:49:45.096Z,10.47
2017-12-05T15:52:16.739Z,9.47
2017-12-05T15:54:48.635Z,10.10
2017-12-05T15:57:19.662Z,10.20
2017-12-05T15:59:48.207Z,9.57
2017-12-05T16:02:29.878Z,9.87
2017-12-05T16:04:57.465Z,10.07
2017-12-05T16:07:25.007Z,9.83
2017-12-05T16:09:53.485Z,9.67
2017-12-05T16:12:21.035Z,11.05
2017-12-05T16:14:51.993Z,10.10
2017-12-05T16:17:19.509Z,8.80
2017-12-05T16:19:47.057Z,9.43
2017-12-05T16:22:16.310Z,8.50
2017-12-05T16:24:43.936Z,8.60
2017-12-05T16:27:11.516Z,8.43
2017-12-05T16:29:39.029Z,9.43
2017-12-05T16:32:06.560Z,8.27
2017-12-05T16:34:34.198Z,7.87
2017-12-05T16:37:02.302Z,8.47
2017-12-05T16:39:30.623Z,7.27
2017-12-05T16:41:59.244Z,7.97
2017-12-05T16:44:26.862Z,8.20
2017-12-05T16:46:54.394Z,8.43
2017-12-05T16:49:21.951Z,7.60
2017-12-05T16:51:49.498Z,7.63
2017-12-05T16:54:17.096Z,7.57
2017-12-05T16:56:44.621Z,7.90
2017-12-05T16:59:12.155Z,7.77
2017-12-05T17:01:43.363Z,7.70
2017-12-05T17:04:10.899Z,7.57
2017-12-05T17:06:39.133Z,8.20
2017-12-05T17:09:08.780Z,9.13
2017-12-05T17:11:36.574Z,9.60
2017-12-05T17:14:04.069Z,9.33
2017-12-05T17:16:31.591Z,10.47
2017-12-05T17:18:59.402Z,10.83
2017-12-05T17:21:26.945Z,11.20
2017-12-05T17:23:55.367Z,11.33
2017-12-05T17:26:23.833Z,11.40
2017-12-05T17:28:51.382Z,12.00
2017-12-05T17:31:19.657Z,11.57
2017-12-05T17:33:47.199Z,11.87
2017-12-05T17:36:14.717Z,11.90
2017-12-05T17:38:42.250Z,12.70
2017-12-05T17:41:09.792Z,12.83
2017-12-05T17:43:37.317Z,12.77
2017-12-05T17:46:04.870Z,13.33
2017-12-05T17:48:32.384Z,12.87
2017-12-05T17:50:59.906Z,14.03
2017-12-05T17:53:27.423Z,14.37
2017-12-05T17:55:55.849Z,14.00
2017-12-05T17:58:23.382Z,12.90
2017-12-05T18:00:50.918Z,13.33
2017-12-05T18:03:18.432Z,14.60
2017-12-05T18:05:45.962Z,14.23
2017-12-05T18:08:13.492Z,14.40
2017-12-05T18:10:41.018Z,14.07
2017-12-05T18:13:09.103Z,14.97
2017-12-05T18:15:36.634Z,13.77
2017-12-05T18:18:04.496Z,14.07
2017-12-05T18:20:32.024Z,15.13
2017-12-05T18:23:00.256Z,14.23
2017-12-05T18:25:27.777Z,15.23
2017-12-05T18:27:55.291Z,15.03
2017-12-05T18:30:22.809Z,15.00
2017-12-05T18:32:51.000Z,15.93
2017-12-05T18:35:18.512Z,15.13
2017-12-05T18:37:46.042Z,15.47
2017-12-05T18:40:13.578Z,15.03
2017-12-05T18:42:42.061Z,15.37
2017-12-05T18:45:09.595Z,15.93
2017-12-05T18:47:37.846Z,15.07
2017-12-05T18:50:05.371Z,16.80
2017-12-05T18:52:34.042Z,14.67
2017-12-05T18:55:01.578Z,15.70
2017-12-05T18:57:29.098Z,15.10
2017-12-05T18:59:56.612Z,15.10
2017-12-05T19:02:24.894Z,14.93
2017-12-05T19:04:52.426Z,15.43
2017-12-05T19:07:21.131Z,14.53
2017-12-05T19:09:48.669Z,15.17
2017-12-05T19:12:16.837Z,15.43
2017-12-05T19:14:44.364Z,15.43
2017-12-05T19:17:13.358Z,15.73
2017-12-05T19:19:40.882Z,15.30
2017-12-05T19:22:08.406Z,14.90
2017-12-05T19:24:35.933Z,15.20
2017-12-05T19:27:03.471Z,14.97
2017-12-05T19:29:30.992Z,14.80
2017-12-05T19:31:58.509Z,15.60
2017-12-05T19:34:26.052Z,15.17
2017-12-05T19:36:53.603Z,15.37
2017-12-05T19:39:21.731Z,15.93
2017-12-05T19:41:49.273Z,14.67
2017-12-05T19:44:16.808Z,15.33
2017-12-05T19:46:45.818Z,14.53
2017-12-05T19:49:13.348Z,15.87
2017-12-05T19:51:40.873Z,15.40
2017-12-05T19:54:08.765Z,16.00
2017-12-05T19:56:36.521Z,15.23
2017-12-05T19:59:04.052Z,15.27
2017-12-05T20:01:31.589Z,14.90
2017-12-05T20:03:59.124Z,15.00
2017-12-05T20:06:28.507Z,16.23
2017-12-05T20:08:56.745Z,14.83
2017-12-05T20:11:25.412Z,14.83
2017-12-05T20:13:52.941Z,15.33
2017-12-05T20:16:21.527Z,14.70
2017-12-05T20:18:49.089Z,14.47
2017-12-05T20:21:17.448Z,15.30
2017-12-05T20:23:44.947Z,15.20
2017-12-05T20:26:12.709Z,16.33
2017-12-05T20:28:41.707Z,15.53
2017-12-05T20:31:11.720Z,15.50
2017-12-05T20:33:39.259Z,14.43
2017-12-05T20:36:07.386Z,14.83
2017-12-05T20:38:34.918Z,15.30
2017-12-05T20:41:02.465Z,14.30
2017-12-05T20:43:30.227Z,15.87
2017-12-05T20:45:58.091Z,17.57
2017-12-05T20:48:25.628Z,15.43
2017-12-05T20:50:53.153Z,15.80
2017-12-05T20:53:20.681Z,15.30
2017-12-05T20:55:48.203Z,15.97
2017-12-05T20:58:15.748Z,16.93
2017-12-05T21:00:43.295Z,16.33
2017-12-05T21:03:10.825Z,16.20
2017-12-05T21:05:39.118Z,15.87
2017-12-05T21:08:06.671Z,16.63
2017-12-05T21:10:34.906Z,15.53
2017-12-05T21:13:02.438Z,15.80
2017-12-05T21:15:29.962Z,15.40
2017-12-05T21:17:57.535Z,16.53
2017-12-05T21:20:25.072Z,16.73
2017-12-05T21:22:56.086Z,16.20
2017-12-05T21:25:23.626Z,16.70
2017-12-05T21:27:51.159Z,16.80
2017-12-05T21:30:18.692Z,16.90
2017-12-05T21:32:50.332Z,16.87
2017-12-05T21:35:17.857Z,17.60
2017-12-05T21:37:45.393Z,16.53
2017-12-05T21:40:13.206Z,16.53
2017-12-05T21:42:40.733Z,17.10
2017-12-05T21:45:08.255Z,16.27
2017-12-05T21:47:35.769Z,17.40
2017-12-05T21:50:03.278Z,16.63
2017-12-05T21:52:31.636Z,16.20
2017-12-05T21:54:59.156Z,17.97
2017-12-05T21:57:26.681Z,16.17
2017-12-05T21:59:54.200Z,15.80
2017-12-05T22:02:21.725Z,16.80
2017-12-05T22:04:49.249Z,16.47
2017-12-05T22:07:16.776Z,17.33
2017-12-05T22:09:45.121Z,16.13
2017-12-05T22:12:12.637Z,16.60
2017-12-05T22:14:40.205Z,16.07
2017-12-05T22:17:07.960Z,15.83
2017-12-05T22:19:36.182Z,16.23
2017-12-05T22:22:03.704Z,16.90
2017-12-05T22:24:31.869Z,17.07
2017-12-05T22:27:00.271Z,17.73
2017-12-05T22:29:27.788Z,17.60
2017-12-05T22:31:55.318Z,18.13
2017-12-05T22:34:22.844Z,19.03
2017-12-05T22:36:50.369Z,17.77
2017-12-05T22:39:17.883Z,18.33
2017-12-05T22:41:45.532Z,18.47
2017-12-05T22:44:13.048Z,18.53
2017-12-05T22:46:40.570Z,18.27
2017-12-05T22:49:08.101Z,18.80
2017-12-05T22:51:35.623Z,19.93
2017-12-05T22:54:03.150Z,18.80
2017-12-05T22:56:30.676Z,17.73
2017-12-05T22:58:58.208Z,18.53
2017-12-05T23:01:26.142Z,18.73
2017-12-05T23:03:53.670Z,16.73
2017-12-05T23:06:21.194Z,16.17
2017-12-05T23:08:48.723Z,17.10
2017-12-05T23:11:16.239Z,16.43
2017-12-05T23:13:43.763Z,16.53
2017-12-05T23:16:11.292Z,15.90
2017-12-05T23:18:38.822Z,15.43
2017-12-05T23:21:08.185Z,14.13
2017-12-05T23:23:35.753Z,15.00
2017-12-05T23:26:04.091Z,15.43
2017-12-05T23:28:32.526Z,15.70
2017-12-05T23:31:00.916Z,15.43
2017-12-05T23:33:28.426Z,13.57
2017-12-05T23:35:56.112Z,14.60
2017-12-05T23:38:23.973Z,14.73
2017-12-05T23:40:52.416Z,15.23
2017-12-05T23:43:19.944Z,13.80
2017-12-05T23:45:47.474Z,12.77
2017-12-05T23:48:15.648Z,12.70
2017-12-05T23:50:43.883Z,14.40
2017-12-05T23:53:11.392Z,12.03
2017-12-05T23:55:39.212Z,12.60
2017-12-05T23:58:07.625Z,12.13
